This demonstration page uses our WeatherBlox Daily Observations layout. Learn more.

Left ArrowRight Arrow

36.19886, -115.1175

Hourly Observations for August 25, 2020

Temp ( °F °C ) Dew Point ( °F °C ) Humidity (%) Winds ( mph kmh ) Pressure ( in mb ) Visibility ( mi km ) Precip ( " mm )
12:53 am 00:53 Clear 92 33.3 51 10.6 25 25 Calm 29.75 1008 10 16.0934 0 0
1:53 am 01:53 Clear 89 31.7 50 10 26 26 NNW 5 7 29.75 1007 10 16.0934 0 0
2:53 am 02:53 Clear 90 32.2 50 10 25 25 Calm 29.75 1007 10 16.0934 0 0
3:53 am 03:53 Clear 87 30.6 50 10 28 28 Calm 29.75 1008 10 16.0934 0 0
4:53 am 04:53 Clear 86 30 49 9.4 28 28 NW 6 9 29.76 1008 10 16.0934 0 0
5:53 am 05:53 Clear 85 29.4 48 8.9 28 28 Calm 29.78 1008 10 16.0934 0 0
6:53 am 06:53 Sunny 85 29.4 48 8.9 28 28 NW 6 9 29.79 1009 10 16.0934 0 0
7:53 am 07:53 Sunny 89 31.7 52 11.1 28 28 Calm 29.8 1009 10 16.0934 0 0
8:53 am 08:53 Sunny 93 33.9 52 11.1 25 25 Calm 29.8 1009 10 16.0934 0 0
9:53 am 09:53 Sunny 97 36.1 49 9.4 20 20 Calm 29.8 1009 10 16.0934 0 0
10:53 am 10:53 Sunny 102 38.9 48 8.9 16 16 ESE 7 11 29.8 1009 10 16.0934 0 0
11:53 am 11:53 Sunny 104 40 47 8.3 15 15 VRB 3 6 29.78 1008 10 16.0934 0 0
12:53 pm 12:53 Sunny 107 41.7 43 6.1 11 11 ESE 5 7 29.75 1007 10 16.0934 0 0
1:53 pm 13:53 Sunny 110 43.3 39 3.9 9 9 S 16 26 29.72 1006 10 16.0934 0 0
2:53 pm 14:53 Sunny 110 43.3 39 3.9 9 9 S 17 28 29.7 1006 10 16.0934 0 0
3:53 pm 15:53 Sunny 111 43.9 38 3.3 8 8 SSW 16 26 29.68 1005 10 16.0934 0 0
4:53 pm 16:53 Sunny 110 43.3 38 3.3 9 9 WSW 14 22 29.67 1005 10 16.0934 0 0
5:53 pm 17:53 Sunny 109 42.8 38 3.3 9 9 W 12 19 29.67 1005 10 16.0934 0 0
6:53 pm 18:53 Sunny 106 41.1 37 2.8 9 9 W 14 22 29.67 1005 10 16.0934 0 0
7:53 pm 19:53 Clear 104 40 38 3.3 10 10 W 12 19 29.68 1005 10 16.0934 0 0
8:53 pm 20:53 Clear 102 38.9 39 3.9 11 11 WSW 9 15 29.7 1006 10 16.0934 0 0
9:53 pm 21:53 Clear 98 36.7 39 3.9 13 13 WNW 3 6 29.71 1006 10 16.0934 0 0
10:53 pm 22:53 Clear 96 35.6 41 5 15 15 W 7 11 29.71 1006 10 16.0934 0 0
11:53 pm 23:53 Clear 95 35 41 5 15 15 Calm 29.71 1006 10 16.0934 0 0

Powered by AerisWeather